sensor_id;sensor_type;location;lat;lon;timestamp;temperature;humidity
31443;SHT31;18065;55.876;9.830;2023-03-14T00:00:38;21.48;43.02
31443;SHT31;18065;55.876;9.830;2023-03-14T00:03:06;21.49;43.00
31443;SHT31;18065;55.876;9.830;2023-03-14T00:05:35;21.50;43.10
31443;SHT31;18065;55.876;9.830;2023-03-14T00:08:03;21.52;42.97
31443;SHT31;18065;55.876;9.830;2023-03-14T00:10:35;21.56;42.99
31443;SHT31;18065;55.876;9.830;2023-03-14T00:13:03;21.55;42.90
31443;SHT31;18065;55.876;9.830;2023-03-14T00:15:32;21.56;42.91
31443;SHT31;18065;55.876;9.830;2023-03-14T00:18:00;21.56;42.95
31443;SHT31;18065;55.876;9.830;2023-03-14T00:20:28;21.56;42.86
31443;SHT31;18065;55.876;9.830;2023-03-14T00:22:57;21.56;42.82
31443;SHT31;18065;55.876;9.830;2023-03-14T00:25:25;21.56;42.74
31443;SHT31;18065;55.876;9.830;2023-03-14T00:27:56;21.56;42.77
31443;SHT31;18065;55.876;9.830;2023-03-14T00:30:25;21.58;42.62
31443;SHT31;18065;55.876;9.830;2023-03-14T00:32:53;21.55;42.56
31443;SHT31;18065;55.876;9.830;2023-03-14T00:35:21;21.56;42.57
31443;SHT31;18065;55.876;9.830;2023-03-14T00:37:50;21.56;42.61
31443;SHT31;18065;55.876;9.830;2023-03-14T00:40:18;21.56;42.57
31443;SHT31;18065;55.876;9.830;2023-03-14T00:42:47;21.56;42.48
31443;SHT31;18065;55.876;9.830;2023-03-14T00:45:18;21.55;42.57
31443;SHT31;18065;55.876;9.830;2023-03-14T00:47:46;21.55;42.53
31443;SHT31;18065;55.876;9.830;2023-03-14T00:50:14;21.53;42.33
31443;SHT31;18065;55.876;9.830;2023-03-14T00:52:43;21.53;42.26
31443;SHT31;18065;55.876;9.830;2023-03-14T00:55:13;21.53;42.24
31443;SHT31;18065;55.876;9.830;2023-03-14T00:57:41;21.55;42.11
31443;SHT31;18065;55.876;9.830;2023-03-14T01:00:10;21.53;42.17
31443;SHT31;18065;55.876;9.830;2023-03-14T01:02:41;21.52;42.25
31443;SHT31;18065;55.876;9.830;2023-03-14T01:05:10;21.50;42.28
31443;SHT31;18065;55.876;9.830;2023-03-14T01:07:38;21.50;42.50
31443;SHT31;18065;55.876;9.830;2023-03-14T01:10:07;21.50;42.35
31443;SHT31;18065;55.876;9.830;2023-03-14T01:12:35;21.50;42.33
31443;SHT31;18065;55.876;9.830;2023-03-14T01:15:04;21.52;42.27
31443;SHT31;18065;55.876;9.830;2023-03-14T01:17:33;21.48;42.20
31443;SHT31;18065;55.876;9.830;2023-03-14T01:20:06;21.48;42.35
31443;SHT31;18065;55.876;9.830;2023-03-14T01:22:37;21.49;42.26
31443;SHT31;18065;55.876;9.830;2023-03-14T01:25:06;21.45;42.41
31443;SHT31;18065;55.876;9.830;2023-03-14T01:27:35;21.46;42.35
31443;SHT31;18065;55.876;9.830;2023-03-14T01:30:04;21.43;42.39
31443;SHT31;18065;55.876;9.830;2023-03-14T01:32:33;21.46;42.33
31443;SHT31;18065;55.876;9.830;2023-03-14T01:35:02;21.46;42.38
31443;SHT31;18065;55.876;9.830;2023-03-14T01:37:33;21.46;42.36
31443;SHT31;18065;55.876;9.830;2023-03-14T01:40:01;21.46;42.46
31443;SHT31;18065;55.876;9.830;2023-03-14T01:42:31;21.46;42.35
31443;SHT31;18065;55.876;9.830;2023-03-14T01:45:01;21.46;42.43
31443;SHT31;18065;55.876;9.830;2023-03-14T01:47:29;21.46;42.37
31443;SHT31;18065;55.876;9.830;2023-03-14T01:49:58;21.49;42.42
31443;SHT31;18065;55.876;9.830;2023-03-14T01:52:27;21.43;42.38
31443;SHT31;18065;55.876;9.830;2023-03-14T01:55:02;21.45;42.29
31443;SHT31;18065;55.876;9.830;2023-03-14T01:57:32;21.46;42.34
31443;SHT31;18065;55.876;9.830;2023-03-14T02:00:04;21.45;42.43
31443;SHT31;18065;55.876;9.830;2023-03-14T02:02:36;21.46;42.31
31443;SHT31;18065;55.876;9.830;2023-03-14T02:05:05;21.45;42.27
31443;SHT31;18065;55.876;9.830;2023-03-14T02:07:34;21.43;42.25
31443;SHT31;18065;55.876;9.830;2023-03-14T02:10:07;21.45;42.36
31443;SHT31;18065;55.876;9.830;2023-03-14T02:12:36;21.43;42.33
31443;SHT31;18065;55.876;9.830;2023-03-14T02:15:05;21.42;42.32
31443;SHT31;18065;55.876;9.830;2023-03-14T02:17:33;21.43;42.40
31443;SHT31;18065;55.876;9.830;2023-03-14T02:20:07;21.42;42.46
31443;SHT31;18065;55.876;9.830;2023-03-14T02:22:38;21.43;42.29
31443;SHT31;18065;55.876;9.830;2023-03-14T02:25:11;21.39;42.30
31443;SHT31;18065;55.876;9.830;2023-03-14T02:27:43;21.39;42.39
31443;SHT31;18065;55.876;9.830;2023-03-14T02:30:13;21.39;42.35
31443;SHT31;18065;55.876;9.830;2023-03-14T02:32:43;21.39;42.35
31443;SHT31;18065;55.876;9.830;2023-03-14T02:35:14;21.35;42.49
31443;SHT31;18065;55.876;9.830;2023-03-14T02:37:43;21.41;42.45
31443;SHT31;18065;55.876;9.830;2023-03-14T02:40:14;21.38;42.43
31443;SHT31;18065;55.876;9.830;2023-03-14T02:42:45;21.38;42.48
31443;SHT31;18065;55.876;9.830;2023-03-14T02:45:31;21.36;42.51
31443;SHT31;18065;55.876;9.830;2023-03-14T02:48:02;21.36;42.61
31443;SHT31;18065;55.876;9.830;2023-03-14T02:50:31;21.36;42.51
31443;SHT31;18065;55.876;9.830;2023-03-14T02:53:01;21.35;42.61
31443;SHT31;18065;55.876;9.830;2023-03-14T02:55:29;21.35;42.71
31443;SHT31;18065;55.876;9.830;2023-03-14T02:58:00;21.35;42.65
31443;SHT31;18065;55.876;9.830;2023-03-14T03:00:28;21.32;42.69
31443;SHT31;18065;55.876;9.830;2023-03-14T03:02:58;21.32;42.63
31443;SHT31;18065;55.876;9.830;2023-03-14T03:05:26;21.35;42.62
31443;SHT31;18065;55.876;9.830;2023-03-14T03:07:55;21.35;42.66
31443;SHT31;18065;55.876;9.830;2023-03-14T03:10:23;21.35;42.68
31443;SHT31;18065;55.876;9.830;2023-03-14T03:12:52;21.32;42.63
31443;SHT31;18065;55.876;9.830;2023-03-14T03:15:23;21.35;42.73
31443;SHT31;18065;55.876;9.830;2023-03-14T03:17:51;21.36;42.85
31443;SHT31;18065;55.876;9.830;2023-03-14T03:20:19;21.42;42.98
31443;SHT31;18065;55.876;9.830;2023-03-14T03:22:48;21.42;43.05
31443;SHT31;18065;55.876;9.830;2023-03-14T03:25:16;21.42;43.05
31443;SHT31;18065;55.876;9.830;2023-03-14T03:27:45;21.45;43.07
31443;SHT31;18065;55.876;9.830;2023-03-14T03:30:13;21.46;43.05
31443;SHT31;18065;55.876;9.830;2023-03-14T03:32:44;21.48;43.05
31443;SHT31;18065;55.876;9.830;2023-03-14T03:35:13;21.50;43.04
31443;SHT31;18065;55.876;9.830;2023-03-14T03:37:41;21.49;43.05
31443;SHT31;18065;55.876;9.830;2023-03-14T03:40:10;21.49;43.08
31443;SHT31;18065;55.876;9.830;2023-03-14T03:42:38;21.49;43.06
31443;SHT31;18065;55.876;9.830;2023-03-14T03:45:07;21.50;43.00
31443;SHT31;18065;55.876;9.830;2023-03-14T03:47:36;21.52;42.99
31443;SHT31;18065;55.876;9.830;2023-03-14T03:50:07;21.52;43.01
31443;SHT31;18065;55.876;9.830;2023-03-14T03:52:36;21.50;42.96
31443;SHT31;18065;55.876;9.830;2023-03-14T03:55:04;21.50;42.93
31443;SHT31;18065;55.876;9.830;2023-03-14T03:57:33;21.52;42.88
31443;SHT31;18065;55.876;9.830;2023-03-14T04:00:02;21.49;42.89
31443;SHT31;18065;55.876;9.830;2023-03-14T04:02:31;21.52;42.90
31443;SHT31;18065;55.876;9.830;2023-03-14T04:04:59;21.52;42.93
31443;SHT31;18065;55.876;9.830;2023-03-14T04:07:30;21.52;42.84
31443;SHT31;18065;55.876;9.830;2023-03-14T04:09:59;21.50;42.83
31443;SHT31;18065;55.876;9.830;2023-03-14T04:12:27;21.50;42.84
31443;SHT31;18065;55.876;9.830;2023-03-14T04:14:55;21.49;42.87
31443;SHT31;18065;55.876;9.830;2023-03-14T04:17:24;21.49;42.74
31443;SHT31;18065;55.876;9.830;2023-03-14T04:19:52;21.48;42.77
31443;SHT31;18065;55.876;9.830;2023-03-14T04:22:20;21.49;42.88
31443;SHT31;18065;55.876;9.830;2023-03-14T04:24:51;21.49;42.92
31443;SHT31;18065;55.876;9.830;2023-03-14T04:27:20;21.46;42.83
31443;SHT31;18065;55.876;9.830;2023-03-14T04:29:48;21.48;42.91
31443;SHT31;18065;55.876;9.830;2023-03-14T04:32:16;21.48;42.88
31443;SHT31;18065;55.876;9.830;2023-03-14T04:34:45;21.46;42.78
31443;SHT31;18065;55.876;9.830;2023-03-14T04:37:13;21.46;42.84
31443;SHT31;18065;55.876;9.830;2023-03-14T04:39:41;21.45;42.73
31443;SHT31;18065;55.876;9.830;2023-03-14T04:42:12;21.45;42.78
31443;SHT31;18065;55.876;9.830;2023-03-14T04:44:41;21.45;42.83
31443;SHT31;18065;55.876;9.830;2023-03-14T04:47:09;21.43;42.89
31443;SHT31;18065;55.876;9.830;2023-03-14T04:49:37;21.45;42.85
31443;SHT31;18065;55.876;9.830;2023-03-14T04:52:06;21.42;42.79
31443;SHT31;18065;55.876;9.830;2023-03-14T04:54:34;21.43;42.94
31443;SHT31;18065;55.876;9.830;2023-03-14T04:57:02;21.42;43.11
31443;SHT31;18065;55.876;9.830;2023-03-14T04:59:33;21.42;43.16
31443;SHT31;18065;55.876;9.830;2023-03-14T05:02:02;21.41;43.27
31443;SHT31;18065;55.876;9.830;2023-03-14T05:04:30;21.43;43.32
31443;SHT31;18065;55.876;9.830;2023-03-14T05:06:59;21.46;43.30
31443;SHT31;18065;55.876;9.830;2023-03-14T05:09:27;21.43;43.31
31443;SHT31;18065;55.876;9.830;2023-03-14T05:11:55;21.45;43.32
31443;SHT31;18065;55.876;9.830;2023-03-14T05:14:24;21.48;43.30
31443;SHT31;18065;55.876;9.830;2023-03-14T05:16:55;21.49;43.34
31443;SHT31;18065;55.876;9.830;2023-03-14T05:19:23;21.49;43.33
31443;SHT31;18065;55.876;9.830;2023-03-14T05:21:51;21.49;43.33
31443;SHT31;18065;55.876;9.830;2023-03-14T05:24:20;21.49;43.33
31443;SHT31;18065;55.876;9.830;2023-03-14T05:26:48;21.50;43.35
31443;SHT31;18065;55.876;9.830;2023-03-14T05:29:16;21.50;43.33
31443;SHT31;18065;55.876;9.830;2023-03-14T05:31:45;21.50;43.38
31443;SHT31;18065;55.876;9.830;2023-03-14T05:34:16;21.49;43.35
31443;SHT31;18065;55.876;9.830;2023-03-14T05:36:44;21.49;43.36
31443;SHT31;18065;55.876;9.830;2023-03-14T05:39:12;21.49;43.38
31443;SHT31;18065;55.876;9.830;2023-03-14T05:41:41;21.52;43.37
31443;SHT31;18065;55.876;9.830;2023-03-14T05:44:09;21.46;43.41
31443;SHT31;18065;55.876;9.830;2023-03-14T05:46:37;21.48;43.41
31443;SHT31;18065;55.876;9.830;2023-03-14T05:49:06;21.48;43.44
31443;SHT31;18065;55.876;9.830;2023-03-14T05:51:37;21.48;43.41
31443;SHT31;18065;55.876;9.830;2023-03-14T05:54:05;21.49;43.45
31443;SHT31;18065;55.876;9.830;2023-03-14T05:56:33;21.48;43.49
31443;SHT31;18065;55.876;9.830;2023-03-14T05:59:02;21.46;43.48
31443;SHT31;18065;55.876;9.830;2023-03-14T06:01:32;21.43;43.51
31443;SHT31;18065;55.876;9.830;2023-03-14T06:04:01;21.43;43.50
31443;SHT31;18065;55.876;9.830;2023-03-14T06:06:29;21.45;43.55
31443;SHT31;18065;55.876;9.830;2023-03-14T06:09:00;21.45;43.54
31443;SHT31;18065;55.876;9.830;2023-03-14T06:11:28;21.43;43.49
31443;SHT31;18065;55.876;9.830;2023-03-14T06:13:56;21.42;43.54
31443;SHT31;18065;55.876;9.830;2023-03-14T06:16:25;21.42;43.57
31443;SHT31;18065;55.876;9.830;2023-03-14T06:18:53;21.42;43.55
31443;SHT31;18065;55.876;9.830;2023-03-14T06:21:21;21.39;43.63
31443;SHT31;18065;55.876;9.830;2023-03-14T06:23:50;21.41;43.66
31443;SHT31;18065;55.876;9.830;2023-03-14T06:26:21;21.39;43.67
31443;SHT31;18065;55.876;9.830;2023-03-14T06:28:49;21.36;43.66
31443;SHT31;18065;55.876;9.830;2023-03-14T06:31:19;21.36;43.69
31443;SHT31;18065;55.876;9.830;2023-03-14T06:33:47;21.42;43.65
31443;SHT31;18065;55.876;9.830;2023-03-14T06:36:15;21.42;43.65
31443;SHT31;18065;55.876;9.830;2023-03-14T06:38:43;21.41;43.62
31443;SHT31;18065;55.876;9.830;2023-03-14T06:41:12;21.46;43.63
31443;SHT31;18065;55.876;9.830;2023-03-14T06:43:43;21.45;43.57
31443;SHT31;18065;55.876;9.830;2023-03-14T06:46:11;21.48;43.57
31443;SHT31;18065;55.876;9.830;2023-03-14T06:48:40;21.50;43.56
31443;SHT31;18065;55.876;9.830;2023-03-14T06:51:09;21.49;43.53
31443;SHT31;18065;55.876;9.830;2023-03-14T06:53:37;21.50;43.54
31443;SHT31;18065;55.876;9.830;2023-03-14T06:56:06;21.53;43.52
31443;SHT31;18065;55.876;9.830;2023-03-14T06:58:35;21.53;43.54
31443;SHT31;18065;55.876;9.830;2023-03-14T07:01:10;21.52;43.53
31443;SHT31;18065;55.876;9.830;2023-03-14T07:03:45;21.53;43.51
31443;SHT31;18065;55.876;9.830;2023-03-14T07:06:13;21.53;43.54
31443;SHT31;18065;55.876;9.830;2023-03-14T07:08:41;21.52;43.53
31443;SHT31;18065;55.876;9.830;2023-03-14T07:11:10;21.55;43.56
31443;SHT31;18065;55.876;9.830;2023-03-14T07:13:38;21.53;43.52
31443;SHT31;18065;55.876;9.830;2023-03-14T07:16:09;21.52;43.52
31443;SHT31;18065;55.876;9.830;2023-03-14T07:18:38;21.53;43.53
31443;SHT31;18065;55.876;9.830;2023-03-14T07:21:06;21.55;43.49
31443;SHT31;18065;55.876;9.830;2023-03-14T07:23:35;21.53;43.50
31443;SHT31;18065;55.876;9.830;2023-03-14T07:26:03;21.53;43.55
31443;SHT31;18065;55.876;9.830;2023-03-14T07:28:32;21.52;43.50
31443;SHT31;18065;55.876;9.830;2023-03-14T07:31:00;21.52;43.56
31443;SHT31;18065;55.876;9.830;2023-03-14T07:33:32;21.52;43.53
31443;SHT31;18065;55.876;9.830;2023-03-14T07:36:00;21.50;43.58
31443;SHT31;18065;55.876;9.830;2023-03-14T07:38:28;21.48;43.58
31443;SHT31;18065;55.876;9.830;2023-03-14T07:41:00;21.49;43.61
31443;SHT31;18065;55.876;9.830;2023-03-14T07:43:28;21.48;43.60
31443;SHT31;18065;55.876;9.830;2023-03-14T07:45:56;21.48;43.59
31443;SHT31;18065;55.876;9.830;2023-03-14T07:48:25;21.49;43.61
31443;SHT31;18065;55.876;9.830;2023-03-14T07:50:56;21.45;43.61
31443;SHT31;18065;55.876;9.830;2023-03-14T07:53:24;21.48;43.62
31443;SHT31;18065;55.876;9.830;2023-03-14T07:55:53;21.48;43.67
31443;SHT31;18065;55.876;9.830;2023-03-14T07:58:22;21.46;43.63
31443;SHT31;18065;55.876;9.830;2023-03-14T08:00:50;21.48;43.71
31443;SHT31;18065;55.876;9.830;2023-03-14T08:03:19;21.45;43.71
31443;SHT31;18065;55.876;9.830;2023-03-14T08:05:48;21.45;43.73
31443;SHT31;18065;55.876;9.830;2023-03-14T08:08:19;21.45;43.72
31443;SHT31;18065;55.876;9.830;2023-03-14T08:10:48;21.45;43.72
31443;SHT31;18065;55.876;9.830;2023-03-14T08:13:16;21.49;43.76
31443;SHT31;18065;55.876;9.830;2023-03-14T08:15:47;21.48;43.70
31443;SHT31;18065;55.876;9.830;2023-03-14T08:18:16;21.50;43.70
31443;SHT31;18065;55.876;9.830;2023-03-14T08:20:44;21.52;43.72
31443;SHT31;18065;55.876;9.830;2023-03-14T08:23:13;21.49;43.72
31443;SHT31;18065;55.876;9.830;2023-03-14T08:25:43;21.53;43.74
31443;SHT31;18065;55.876;9.830;2023-03-14T08:28:12;21.53;43.71
31443;SHT31;18065;55.876;9.830;2023-03-14T08:30:40;21.53;43.70
31443;SHT31;18065;55.876;9.830;2023-03-14T08:33:08;21.53;43.73
31443;SHT31;18065;55.876;9.830;2023-03-14T08:35:37;21.53;43.68
31443;SHT31;18065;55.876;9.830;2023-03-14T08:38:05;21.52;43.71
31443;SHT31;18065;55.876;9.830;2023-03-14T08:40:34;21.53;43.71
31443;SHT31;18065;55.876;9.830;2023-03-14T08:43:05;21.55;43.70
31443;SHT31;18065;55.876;9.830;2023-03-14T08:45:33;21.55;43.70
31443;SHT31;18065;55.876;9.830;2023-03-14T08:48:02;21.53;43.71
31443;SHT31;18065;55.876;9.830;2023-03-14T08:50:30;21.58;43.72
31443;SHT31;18065;55.876;9.830;2023-03-14T08:52:58;21.58;43.71
31443;SHT31;18065;55.876;9.830;2023-03-14T08:55:27;21.59;43.70
31443;SHT31;18065;55.876;9.830;2023-03-14T08:57:56;21.58;43.72
31443;SHT31;18065;55.876;9.830;2023-03-14T09:00:27;21.58;43.71
31443;SHT31;18065;55.876;9.830;2023-03-14T09:02:55;21.58;43.73
31443;SHT31;18065;55.876;9.830;2023-03-14T09:05:23;21.55;43.72
31443;SHT31;18065;55.876;9.830;2023-03-14T09:07:52;21.58;43.70
31443;SHT31;18065;55.876;9.830;2023-03-14T09:10:20;21.56;43.77
31443;SHT31;18065;55.876;9.830;2023-03-14T09:12:48;21.53;43.76
31443;SHT31;18065;55.876;9.830;2023-03-14T09:15:17;21.53;43.73
31443;SHT31;18065;55.876;9.830;2023-03-14T09:17:48;21.56;43.78
31443;SHT31;18065;55.876;9.830;2023-03-14T09:20:16;21.56;43.75
31443;SHT31;18065;55.876;9.830;2023-03-14T09:22:45;21.56;43.75
31443;SHT31;18065;55.876;9.830;2023-03-14T09:25:13;21.59;43.76
31443;SHT31;18065;55.876;9.830;2023-03-14T09:27:41;21.56;43.76
31443;SHT31;18065;55.876;9.830;2023-03-14T09:30:10;21.56;43.75
31443;SHT31;18065;55.876;9.830;2023-03-14T09:32:38;21.56;43.78
31443;SHT31;18065;55.876;9.830;2023-03-14T09:35:10;21.55;43.76
31443;SHT31;18065;55.876;9.830;2023-03-14T09:37:38;21.58;43.76
31443;SHT31;18065;55.876;9.830;2023-03-14T09:40:09;21.52;43.78
31443;SHT31;18065;55.876;9.830;2023-03-14T09:42:39;21.55;43.78
31443;SHT31;18065;55.876;9.830;2023-03-14T09:45:11;21.56;43.79
31443;SHT31;18065;55.876;9.830;2023-03-14T09:47:39;21.56;43.80
31443;SHT31;18065;55.876;9.830;2023-03-14T09:50:12;21.53;43.82
31443;SHT31;18065;55.876;9.830;2023-03-14T09:52:42;21.52;43.81
31443;SHT31;18065;55.876;9.830;2023-03-14T09:55:11;21.53;43.80
31443;SHT31;18065;55.876;9.830;2023-03-14T09:57:41;21.55;43.84
31443;SHT31;18065;55.876;9.830;2023-03-14T10:00:13;21.56;43.81
31443;SHT31;18065;55.876;9.830;2023-03-14T10:02:43;21.55;43.80
31443;SHT31;18065;55.876;9.830;2023-03-14T10:05:17;21.52;43.84
31443;SHT31;18065;55.876;9.830;2023-03-14T10:07:46;21.56;43.81
31443;SHT31;18065;55.876;9.830;2023-03-14T10:10:15;21.58;43.81
31443;SHT31;18065;55.876;9.830;2023-03-14T10:12:45;21.55;43.84
31443;SHT31;18065;55.876;9.830;2023-03-14T10:15:14;21.56;43.83
31443;SHT31;18065;55.876;9.830;2023-03-14T10:17:47;21.55;43.83
31443;SHT31;18065;55.876;9.830;2023-03-14T10:20:28;21.53;43.87
31443;SHT31;18065;55.876;9.830;2023-03-14T10:22:58;21.53;43.91
31443;SHT31;18065;55.876;9.830;2023-03-14T10:25:27;21.55;43.91
31443;SHT31;18065;55.876;9.830;2023-03-14T10:27:56;21.56;43.87
31443;SHT31;18065;55.876;9.830;2023-03-14T10:30:29;21.55;43.95
31443;SHT31;18065;55.876;9.830;2023-03-14T10:32:59;21.53;43.88
31443;SHT31;18065;55.876;9.830;2023-03-14T10:35:38;21.56;43.88
31443;SHT31;18065;55.876;9.830;2023-03-14T10:38:10;21.56;43.93
31443;SHT31;18065;55.876;9.830;2023-03-14T10:40:40;21.56;43.88
31443;SHT31;18065;55.876;9.830;2023-03-14T10:43:11;21.55;43.90
31443;SHT31;18065;55.876;9.830;2023-03-14T10:45:41;21.53;43.87
31443;SHT31;18065;55.876;9.830;2023-03-14T10:48:20;21.55;43.88
31443;SHT31;18065;55.876;9.830;2023-03-14T10:50:55;21.56;43.86
31443;SHT31;18065;55.876;9.830;2023-03-14T10:53:23;21.58;43.90
31443;SHT31;18065;55.876;9.830;2023-03-14T10:55:52;21.55;43.90
31443;SHT31;18065;55.876;9.830;2023-03-14T10:58:21;21.56;43.88
31443;SHT31;18065;55.876;9.830;2023-03-14T11:01:01;21.58;43.88
31443;SHT31;18065;55.876;9.830;2023-03-14T11:03:31;21.59;43.80
31443;SHT31;18065;55.876;9.830;2023-03-14T11:06:05;21.56;43.87
31443;SHT31;18065;55.876;9.830;2023-03-14T11:08:35;21.56;43.87
31443;SHT31;18065;55.876;9.830;2023-03-14T11:11:07;21.55;43.89
31443;SHT31;18065;55.876;9.830;2023-03-14T11:13:39;21.56;43.87
31443;SHT31;18065;55.876;9.830;2023-03-14T11:16:14;21.56;43.91
31443;SHT31;18065;55.876;9.830;2023-03-14T11:18:49;21.53;43.87
31443;SHT31;18065;55.876;9.830;2023-03-14T11:21:23;21.55;43.88
31443;SHT31;18065;55.876;9.830;2023-03-14T11:23:57;21.55;43.90
31443;SHT31;18065;55.876;9.830;2023-03-14T11:26:31;21.56;43.85
31443;SHT31;18065;55.876;9.830;2023-03-14T11:29:02;21.58;43.87
31443;SHT31;18065;55.876;9.830;2023-03-14T11:31:35;21.55;43.90
31443;SHT31;18065;55.876;9.830;2023-03-14T11:34:08;21.56;43.93
31443;SHT31;18065;55.876;9.830;2023-03-14T11:36:46;21.55;43.92
31443;SHT31;18065;55.876;9.830;2023-03-14T11:39:20;21.53;43.96
31443;SHT31;18065;55.876;9.830;2023-03-14T11:41:49;21.53;43.94
31443;SHT31;18065;55.876;9.830;2023-03-14T11:44:19;21.55;43.98
31443;SHT31;18065;55.876;9.830;2023-03-14T11:46:48;21.52;43.99
31443;SHT31;18065;55.876;9.830;2023-03-14T11:49:22;21.50;44.01
31443;SHT31;18065;55.876;9.830;2023-03-14T11:51:55;21.52;44.08
31443;SHT31;18065;55.876;9.830;2023-03-14T11:54:26;21.52;44.04
31443;SHT31;18065;55.876;9.830;2023-03-14T11:56:58;21.52;44.09
31443;SHT31;18065;55.876;9.830;2023-03-14T11:59:28;21.53;44.07
31443;SHT31;18065;55.876;9.830;2023-03-14T12:01:57;21.53;44.09
31443;SHT31;18065;55.876;9.830;2023-03-14T12:04:33;21.53;44.12
31443;SHT31;18065;55.876;9.830;2023-03-14T12:07:05;21.52;44.10
31443;SHT31;18065;55.876;9.830;2023-03-14T12:09:36;21.55;44.11
31443;SHT31;18065;55.876;9.830;2023-03-14T12:12:05;21.56;44.07
31443;SHT31;18065;55.876;9.830;2023-03-14T12:14:34;21.53;44.15
31443;SHT31;18065;55.876;9.830;2023-03-14T12:17:04;21.52;44.15
31443;SHT31;18065;55.876;9.830;2023-03-14T12:19:34;21.50;44.11
31443;SHT31;18065;55.876;9.830;2023-03-14T12:24:50;21.52;44.10
31443;SHT31;18065;55.876;9.830;2023-03-14T12:30:02;21.50;44.11
31443;SHT31;18065;55.876;9.830;2023-03-14T12:35:35;21.52;44.14
31443;SHT31;18065;55.876;9.830;2023-03-14T12:38:04;21.49;44.14
31443;SHT31;18065;55.876;9.830;2023-03-14T12:40:38;21.53;44.17
31443;SHT31;18065;55.876;9.830;2023-03-14T12:43:20;21.50;44.14
31443;SHT31;18065;55.876;9.830;2023-03-14T12:48:41;21.49;44.19
31443;SHT31;18065;55.876;9.830;2023-03-14T12:51:12;21.50;44.14
31443;SHT31;18065;55.876;9.830;2023-03-14T12:56:32;21.50;44.25
31443;SHT31;18065;55.876;9.830;2023-03-14T13:01:52;21.49;44.28
31443;SHT31;18065;55.876;9.830;2023-03-14T13:04:26;21.52;44.32
31443;SHT31;18065;55.876;9.830;2023-03-14T13:06:56;21.49;44.28
31443;SHT31;18065;55.876;9.830;2023-03-14T13:09:45;21.52;44.29
31443;SHT31;18065;55.876;9.830;2023-03-14T13:12:23;21.50;44.34
31443;SHT31;18065;55.876;9.830;2023-03-14T13:14:53;21.50;44.33
31443;SHT31;18065;55.876;9.830;2023-03-14T13:17:26;21.49;44.38
31443;SHT31;18065;55.876;9.830;2023-03-14T13:19:55;21.50;44.37
31443;SHT31;18065;55.876;9.830;2023-03-14T13:22:26;21.50;44.33
31443;SHT31;18065;55.876;9.830;2023-03-14T13:24:59;21.49;44.35
31443;SHT31;18065;55.876;9.830;2023-03-14T13:27:30;21.50;44.39
31443;SHT31;18065;55.876;9.830;2023-03-14T13:30:04;21.49;44.36
31443;SHT31;18065;55.876;9.830;2023-03-14T13:32:33;21.49;44.41
31443;SHT31;18065;55.876;9.830;2023-03-14T13:35:01;21.52;44.39
31443;SHT31;18065;55.876;9.830;2023-03-14T13:37:30;21.52;44.45
31443;SHT31;18065;55.876;9.830;2023-03-14T13:39:58;21.50;44.46
31443;SHT31;18065;55.876;9.830;2023-03-14T13:42:29;21.50;44.49
31443;SHT31;18065;55.876;9.830;2023-03-14T13:44:58;21.50;44.48
31443;SHT31;18065;55.876;9.830;2023-03-14T13:47:26;21.52;44.56
31443;SHT31;18065;55.876;9.830;2023-03-14T13:49:54;21.50;44.51
31443;SHT31;18065;55.876;9.830;2023-03-14T13:52:24;21.50;44.52
31443;SHT31;18065;55.876;9.830;2023-03-14T13:54:56;21.50;44.56
31443;SHT31;18065;55.876;9.830;2023-03-14T13:57:24;21.50;44.61
31443;SHT31;18065;55.876;9.830;2023-03-14T14:00:01;21.53;44.60
31443;SHT31;18065;55.876;9.830;2023-03-14T14:02:31;21.50;44.63
31443;SHT31;18065;55.876;9.830;2023-03-14T14:05:00;21.52;44.64
31443;SHT31;18065;55.876;9.830;2023-03-14T14:07:31;21.50;44.64
31443;SHT31;18065;55.876;9.830;2023-03-14T14:09:59;21.49;44.64
31443;SHT31;18065;55.876;9.830;2023-03-14T14:12:29;21.50;44.64
31443;SHT31;18065;55.876;9.830;2023-03-14T14:15:02;21.49;44.68
31443;SHT31;18065;55.876;9.830;2023-03-14T14:17:33;21.49;44.66
31443;SHT31;18065;55.876;9.830;2023-03-14T14:20:03;21.48;44.72
31443;SHT31;18065;55.876;9.830;2023-03-14T14:22:33;21.48;44.74
31443;SHT31;18065;55.876;9.830;2023-03-14T14:25:03;21.52;44.73
31443;SHT31;18065;55.876;9.830;2023-03-14T14:27:33;21.50;44.72
31443;SHT31;18065;55.876;9.830;2023-03-14T14:30:05;21.53;44.74
31443;SHT31;18065;55.876;9.830;2023-03-14T14:32:34;21.52;44.75
31443;SHT31;18065;55.876;9.830;2023-03-14T14:35:03;21.48;44.78
31443;SHT31;18065;55.876;9.830;2023-03-14T14:37:32;21.48;44.75
31443;SHT31;18065;55.876;9.830;2023-03-14T14:40:06;21.50;44.79
31443;SHT31;18065;55.876;9.830;2023-03-14T14:42:38;21.52;44.78
31443;SHT31;18065;55.876;9.830;2023-03-14T14:45:12;21.52;44.74
31443;SHT31;18065;55.876;9.830;2023-03-14T14:47:48;21.50;44.78
31443;SHT31;18065;55.876;9.830;2023-03-14T14:50:20;21.50;44.90
31443;SHT31;18065;55.876;9.830;2023-03-14T14:52:49;21.52;44.86
31443;SHT31;18065;55.876;9.830;2023-03-14T14:55:18;21.53;44.93
31443;SHT31;18065;55.876;9.830;2023-03-14T14:57:50;21.52;44.93
31443;SHT31;18065;55.876;9.830;2023-03-14T15:00:22;21.50;45.03
31443;SHT31;18065;55.876;9.830;2023-03-14T15:02:51;21.50;45.01
31443;SHT31;18065;55.876;9.830;2023-03-14T15:05:20;21.50;44.98
31443;SHT31;18065;55.876;9.830;2023-03-14T15:07:49;21.52;45.00
31443;SHT31;18065;55.876;9.830;2023-03-14T15:10:18;21.49;45.01
31443;SHT31;18065;55.876;9.830;2023-03-14T15:12:48;21.50;44.97
31443;SHT31;18065;55.876;9.830;2023-03-14T15:15:16;21.52;45.01
31443;SHT31;18065;55.876;9.830;2023-03-14T15:17:47;21.50;45.01
31443;SHT31;18065;55.876;9.830;2023-03-14T15:20:16;21.50;44.98
31443;SHT31;18065;55.876;9.830;2023-03-14T15:22:48;21.53;44.98
31443;SHT31;18065;55.876;9.830;2023-03-14T15:25:17;21.52;44.98
31443;SHT31;18065;55.876;9.830;2023-03-14T15:27:45;21.50;45.08
31443;SHT31;18065;55.876;9.830;2023-03-14T15:30:14;21.50;45.08
31443;SHT31;18065;55.876;9.830;2023-03-14T15:32:43;21.49;45.11
31443;SHT31;18065;55.876;9.830;2023-03-14T15:35:15;21.50;45.09
31443;SHT31;18065;55.876;9.830;2023-03-14T15:37:43;21.50;45.08
31443;SHT31;18065;55.876;9.830;2023-03-14T15:40:12;21.50;45.09
31443;SHT31;18065;55.876;9.830;2023-03-14T15:42:41;21.50;45.09
31443;SHT31;18065;55.876;9.830;2023-03-14T15:45:10;21.50;45.07
31443;SHT31;18065;55.876;9.830;2023-03-14T15:47:38;21.50;45.06
31443;SHT31;18065;55.876;9.830;2023-03-14T15:50:08;21.50;45.01
31443;SHT31;18065;55.876;9.830;2023-03-14T15:52:39;21.52;45.01
31443;SHT31;18065;55.876;9.830;2023-03-14T15:55:08;21.55;44.98
31443;SHT31;18065;55.876;9.830;2023-03-14T15:57:36;21.50;45.00
31443;SHT31;18065;55.876;9.830;2023-03-14T16:00:05;21.52;44.99
31443;SHT31;18065;55.876;9.830;2023-03-14T16:02:36;21.52;45.06